Time;durP1;ratioP1;P1;durP2;ratioP2;P2;SDS_P1;SDS_P2;PMS_P1;PMS_P2;Temp;Humidity;BMP_temperature;BMP_pressure;BME280_temperature;BME280_humidity;BME280_pressure;Samples;Min_cycle;Max_cycle;Signal;HPM_P1;HPM_P2
2023/09/19 00:00:44;;;;;;;12.35;2.55;;;14.10;99.90;;;;;;5069728;28;20044;-78
2023/09/19 00:03:11;;;;;;;14.45;2.20;;;14.00;99.90;;;;;;5069598;28;20131;-77
2023/09/19 00:05:38;;;;;;;5.80;1.83;;;14.00;99.90;;;;;;5051509;28;20102;-79
2023/09/19 00:08:05;;;;;;;11.65;2.03;;;13.90;99.90;;;;;;5068152;28;20045;-80
2023/09/19 00:10:34;;;;;;;8.25;1.70;;;13.90;99.90;;;;;;5069536;28;20048;-77
2023/09/19 00:13:05;;;;;;;12.45;1.88;;;13.90;99.90;;;;;;5051551;28;20040;-77
2023/09/19 00:15:35;;;;;;;12.20;2.00;;;13.90;99.90;;;;;;5067847;28;20044;-78
2023/09/19 00:18:01;;;;;;;9.18;2.03;;;13.90;99.90;;;;;;5051162;28;20060;-75
2023/09/19 00:20:29;;;;;;;12.23;2.25;;;13.80;99.90;;;;;;5068117;28;20051;-79
2023/09/19 00:22:55;;;;;;;14.90;2.05;;;13.80;99.90;;;;;;5051547;28;20072;-78
2023/09/19 00:25:21;;;;;;;10.27;1.50;;;13.70;99.90;;;;;;5069048;28;20083;-79
2023/09/19 00:27:49;;;;;;;9.43;2.08;;;13.70;99.90;;;;;;5067976;28;20037;-78
2023/09/19 00:30:16;;;;;;;11.60;2.17;;;13.70;99.90;;;;;;5069206;28;20053;-77
2023/09/19 00:32:42;;;;;;;11.48;1.80;;;13.60;99.90;;;;;;5068007;28;20513;-79
2023/09/19 00:35:10;;;;;;;13.45;2.05;;;13.60;99.90;;;;;;5067744;28;20110;-80
2023/09/19 00:37:36;;;;;;;12.10;1.85;;;13.50;99.90;;;;;;5069188;28;20064;-78
2023/09/19 00:40:05;;;;;;;14.68;2.10;;;13.50;99.90;;;;;;5068064;28;20480;-78
2023/09/19 00:42:31;;;;;;;9.50;1.80;;;13.50;99.90;;;;;;5067879;28;20052;-78
2023/09/19 00:44:57;;;;;;;11.60;1.80;;;13.40;99.90;;;;;;5067617;28;20039;-78
2023/09/19 00:47:23;;;;;;;10.10;1.90;;;13.40;99.90;;;;;;5069327;28;20052;-79
2023/09/19 00:49:52;;;;;;;12.52;1.75;;;13.40;99.90;;;;;;5069035;28;20044;-75
2023/09/19 00:52:23;;;;;;;10.60;1.80;;;13.40;99.90;;;;;;5068064;28;20058;-79
2023/09/19 00:54:49;;;;;;;11.98;2.42;;;13.30;99.90;;;;;;5069140;28;20064;-76
2023/09/19 00:57:15;;;;;;;10.10;1.80;;;13.30;99.90;;;;;;5071814;28;20048;-78
2023/09/19 00:59:44;;;;;;;12.70;1.85;;;13.30;99.90;;;;;;5071471;28;20761;-80
2023/09/19 01:02:10;;;;;;;12.27;2.15;;;13.20;99.90;;;;;;5055368;28;20479;-77
2023/09/19 01:04:36;;;;;;;12.18;2.00;;;13.20;99.90;;;;;;5071929;28;20503;-83
2023/09/19 01:07:03;;;;;;;13.38;2.42;;;13.20;99.90;;;;;;5072495;28;20548;-80
2023/09/19 01:09:29;;;;;;;12.27;2.03;;;13.20;99.90;;;;;;5072647;28;20044;-78
2023/09/19 01:12:00;;;;;;;10.85;2.20;;;13.20;99.90;;;;;;5072696;28;20037;-79
2023/09/19 01:14:29;;;;;;;15.73;2.22;;;13.20;99.90;;;;;;5072591;28;20407;-82
2023/09/19 01:17:14;;;;;;;7.25;2.03;;;13.40;99.90;;;;;;5072481;28;20028;-79
2023/09/19 01:19:56;;;;;;;9.35;1.88;;;13.10;99.90;;;;;;5065159;28;20044;-78
2023/09/19 01:22:37;;;;;;;11.52;2.08;;;13.10;99.90;;;;;;5071148;28;20068;-81
2023/09/19 01:25:30;;;;;;;9.57;2.00;;;13.30;99.90;;;;;;5064816;28;20051;-83
2023/09/19 01:28:19;;;;;;;14.00;2.17;;;13.10;99.90;;;;;;5066013;28;20049;-83
2023/09/19 01:30:47;;;;;;;14.73;2.03;;;13.10;99.90;;;;;;5057793;28;20081;-80
2023/09/19 01:33:14;;;;;;;13.85;2.22;;;13.60;99.90;;;;;;5070831;28;20045;-84
2023/09/19 01:35:40;;;;;;;11.82;1.90;;;13.20;99.90;;;;;;5064248;28;20044;-83
2023/09/19 01:38:11;;;;;;;13.55;2.20;;;13.00;99.90;;;;;;5070638;28;20064;-81
2023/09/19 01:40:43;;;;;;;14.07;1.90;;;13.00;99.90;;;;;;5071958;28;20075;-82
2023/09/19 01:43:21;;;;;;;13.43;2.40;;;13.10;99.90;;;;;;5065738;28;20053;-83
2023/09/19 01:46:06;;;;;;;7.25;1.65;;;12.90;99.90;;;;;;5072084;28;20039;-84
2023/09/19 01:48:46;;;;;;;11.32;2.20;;;12.90;99.90;;;;;;5072035;28;20406;-81
2023/09/19 01:51:14;;;;;;;11.20;2.13;;;12.90;99.90;;;;;;5070294;28;20052;-81
2023/09/19 01:54:02;;;;;;;10.80;2.13;;;12.80;99.90;;;;;;5071812;28;20436;-84
2023/09/19 01:56:45;;;;;;;9.90;2.13;;;12.80;99.90;;;;;;5070670;28;20052;-82
2023/09/19 01:59:16;;;;;;;15.73;2.25;;;12.80;99.90;;;;;;5064862;28;20407;-81
2023/09/19 02:01:44;;;;;;;9.77;2.10;;;12.80;99.90;;;;;;5053666;28;20056;-80
2023/09/19 02:04:10;;;;;;;7.85;1.88;;;12.80;99.90;;;;;;5069861;28;20056;-84
2023/09/19 02:06:40;;;;;;;13.43;2.25;;;12.70;99.90;;;;;;5070431;28;20052;-80
2023/09/19 02:09:06;;;;;;;9.45;1.92;;;12.70;99.90;;;;;;5071687;28;20471;-80
2023/09/19 02:11:32;;;;;;;11.05;1.92;;;12.60;99.90;;;;;;5071771;28;20079;-85
2023/09/19 02:13:59;;;;;;;11.35;2.08;;;12.60;99.90;;;;;;5069878;28;20084;-82
2023/09/19 02:16:25;;;;;;;9.95;1.77;;;12.60;99.90;;;;;;5071503;28;20036;-80
2023/09/19 02:18:51;;;;;;;10.23;2.00;;;12.60;99.90;;;;;;5071409;28;20047;-86
2023/09/19 02:21:17;;;;;;;8.38;1.85;;;12.60;99.90;;;;;;5071110;28;20498;-82
2023/09/19 02:23:44;;;;;;;8.30;1.63;;;12.50;99.90;;;;;;5071320;28;20118;-78
2023/09/19 02:26:11;;;;;;;4.35;1.60;;;12.50;99.90;;;;;;5070019;28;20044;-83
2023/09/19 02:28:37;;;;;;;9.15;1.92;;;12.50;99.90;;;;;;5071340;28;20048;-86
2023/09/19 02:31:05;;;;;;;7.32;1.73;;;12.50;99.90;;;;;;5069428;28;20048;-82
2023/09/19 02:33:32;;;;;;;13.57;1.70;;;12.50;99.90;;;;;;5070878;28;20047;-83
2023/09/19 02:35:58;;;;;;;8.25;2.20;;;13.00;99.90;;;;;;5071151;28;20123;-82
2023/09/19 02:38:25;;;;;;;8.32;1.88;;;12.40;99.90;;;;;;5069896;28;20048;-82
2023/09/19 02:40:52;;;;;;;12.68;2.10;;;12.40;99.90;;;;;;5069962;28;20044;-83
2023/09/19 02:43:19;;;;;;;14.02;1.90;;;12.40;99.90;;;;;;5070005;28;20063;-81
2023/09/19 02:45:46;;;;;;;8.65;1.65;;;12.30;99.90;;;;;;5070999;28;20127;-81
2023/09/19 02:48:12;;;;;;;11.18;2.03;;;12.30;99.90;;;;;;5053121;28;20057;-83
2023/09/19 02:50:40;;;;;;;13.10;1.95;;;12.30;99.90;;;;;;5069435;28;20061;-80
2023/09/19 02:53:06;;;;;;;6.65;1.65;;;12.30;99.90;;;;;;5052444;28;20040;-79
2023/09/19 02:55:32;;;;;;;11.32;1.77;;;12.30;99.90;;;;;;5069691;28;20044;-81
2023/09/19 02:57:58;;;;;;;10.27;2.33;;;12.30;99.90;;;;;;5069237;28;20649;-88
2023/09/19 03:00:24;;;;;;;14.48;2.60;;;12.20;99.90;;;;;;5068533;28;20052;-81
2023/09/19 03:02:52;;;;;;;10.88;2.15;;;12.20;99.90;;;;;;5070475;28;20059;-83
2023/09/19 03:05:18;;;;;;;11.70;2.30;;;12.20;99.90;;;;;;5070852;28;20047;-84
2023/09/19 03:07:46;;;;;;;10.43;2.13;;;12.20;99.90;;;;;;5069150;28;20501;-83
2023/09/19 03:10:14;;;;;;;9.25;1.70;;;12.20;99.90;;;;;;5062426;28;20044;-79
2023/09/19 03:12:40;;;;;;;13.30;1.67;;;13.00;99.90;;;;;;5070472;28;20112;-84
2023/09/19 03:15:08;;;;;;;9.77;1.80;;;12.20;99.90;;;;;;5070483;28;20090;-84
2023/09/19 03:17:34;;;;;;;8.85;1.80;;;12.20;99.90;;;;;;5067876;28;20098;-83
2023/09/19 03:20:00;;;;;;;11.85;2.03;;;12.80;99.90;;;;;;5068942;28;20132;-80
2023/09/19 03:22:27;;;;;;;9.63;2.00;;;12.40;99.90;;;;;;5068495;28;20040;-79
2023/09/19 03:24:53;;;;;;;12.27;2.08;;;12.20;99.90;;;;;;5068056;28;20406;-83
2023/09/19 03:27:20;;;;;;;8.90;1.85;;;12.20;99.90;;;;;;5067396;28;20127;-85
2023/09/19 03:29:47;;;;;;;18.63;3.10;;;12.20;99.90;;;;;;5068684;28;20067;-84
2023/09/19 03:32:12;;;;;;;11.70;2.20;;;12.20;99.90;;;;;;5068513;28;20059;-84
2023/09/19 03:34:42;;;;;;;10.18;1.70;;;12.20;99.90;;;;;;5068319;28;20040;-83
2023/09/19 03:37:09;;;;;;;11.80;1.98;;;12.20;99.90;;;;;;5069610;28;20098;-83
2023/09/19 03:39:35;;;;;;;10.10;2.17;;;12.20;99.90;;;;;;5069507;28;20120;-83
2023/09/19 03:42:06;;;;;;;19.23;2.10;;;12.10;99.90;;;;;;5069527;28;20519;-81
2023/09/19 03:44:32;;;;;;;10.73;1.88;;;12.20;99.90;;;;;;5069257;28;20080;-83
2023/09/19 03:46:58;;;;;;;15.05;2.30;;;12.20;99.90;;;;;;5051540;28;20082;-80
2023/09/19 03:49:24;;;;;;;11.30;1.88;;;12.20;99.90;;;;;;5069268;28;20048;-81
2023/09/19 03:51:50;;;;;;;7.68;1.92;;;12.20;99.90;;;;;;5051410;28;21341;-81
2023/09/19 03:54:16;;;;;;;10.98;2.08;;;12.30;99.90;;;;;;5068592;28;20091;-84
2023/09/19 03:56:43;;;;;;;12.30;2.15;;;12.40;99.90;;;;;;5067632;28;20092;-81
2023/09/19 03:59:09;;;;;;;9.80;2.05;;;12.50;99.90;;;;;;5068529;28;20048;-85
2023/09/19 04:01:35;;;;;;;15.02;2.40;;;12.30;99.90;;;;;;5068398;28;20135;-83
2023/09/19 04:04:08;;;;;;;11.43;1.92;;;12.30;99.90;;;;;;5067690;28;20124;-82
2023/09/19 04:06:35;;;;;;;10.93;1.90;;;12.40;99.90;;;;;;5069226;28;20131;-84
2023/09/19 04:09:01;;;;;;;9.80;1.88;;;12.40;99.90;;;;;;5069577;28;20842;-83
2023/09/19 04:11:27;;;;;;;7.65;1.80;;;12.50;99.90;;;;;;5069415;28;20059;-81
2023/09/19 04:13:53;;;;;;;8.52;1.67;;;12.50;99.90;;;;;;5069739;28;20499;-81
2023/09/19 04:16:19;;;;;;;18.55;2.33;;;12.60;99.90;;;;;;5069662;28;20119;-84
2023/09/19 04:18:45;;;;;;;11.70;2.15;;;12.50;99.90;;;;;;5069505;28;20116;-80
2023/09/19 04:21:10;;;;;;;12.52;1.80;;;12.50;99.90;;;;;;5069309;28;20477;-83
2023/09/19 04:23:36;;;;;;;9.75;2.22;;;12.50;99.90;;;;;;5068730;28;20127;-83
2023/09/19 04:26:04;;;;;;;10.13;2.08;;;12.60;99.90;;;;;;5067463;28;20044;-80
2023/09/19 04:28:31;;;;;;;13.68;1.92;;;12.60;99.90;;;;;;5052303;28;20041;-81
2023/09/19 04:30:57;;;;;;;10.38;1.90;;;12.60;99.90;;;;;;5055172;28;20060;-81
2023/09/19 04:33:23;;;;;;;7.10;1.70;;;12.60;99.90;;;;;;5073161;28;20127;-82
2023/09/19 04:35:52;;;;;;;7.28;1.95;;;13.00;99.90;;;;;;5072360;28;20127;-81
2023/09/19 04:38:20;;;;;;;13.05;1.50;;;12.80;99.90;;;;;;5071643;28;20080;-83
2023/09/19 04:40:47;;;;;;;8.25;1.88;;;12.70;99.90;;;;;;5073629;28;20080;-80
2023/09/19 04:43:12;;;;;;;7.43;1.73;;;12.70;99.90;;;;;;5073692;28;20044;-81
2023/09/19 04:45:40;;;;;;;11.45;2.67;;;12.70;99.90;;;;;;5073572;28;20406;-86
2023/09/19 04:48:08;;;;;;;7.57;2.17;;;12.80;99.90;;;;;;5054499;28;20119;-79
2023/09/19 04:50:34;;;;;;;14.43;2.42;;;12.70;99.90;;;;;;5055089;28;20411;-84
2023/09/19 04:53:01;;;;;;;12.98;1.90;;;12.70;99.90;;;;;;5072625;28;20040;-82
2023/09/19 04:55:27;;;;;;;13.45;2.13;;;12.80;99.90;;;;;;5073305;28;20390;-80
2023/09/19 04:57:53;;;;;;;9.52;1.95;;;12.80;99.90;;;;;;5072755;28;20044;-80
2023/09/19 05:00:27;;;;;;;10.13;1.90;;;13.10;99.90;;;;;;5071196;28;20079;-80
2023/09/19 05:02:57;;;;;;;6.82;1.38;;;12.80;99.90;;;;;;5072431;28;20071;-82
2023/09/19 05:05:25;;;;;;;10.25;1.80;;;12.80;99.90;;;;;;5070496;28;20403;-81
2023/09/19 05:07:51;;;;;;;15.02;2.42;;;12.80;99.90;;;;;;5071211;28;20056;-81
2023/09/19 05:10:18;;;;;;;12.82;2.28;;;12.80;99.90;;;;;;5071109;28;20045;-82
2023/09/19 05:12:48;;;;;;;15.57;2.42;;;12.80;99.90;;;;;;5071209;28;20059;-83
2023/09/19 05:15:17;;;;;;;10.18;2.08;;;12.80;99.90;;;;;;5071994;28;20676;-81
2023/09/19 05:17:51;;;;;;;12.38;2.00;;;12.90;99.90;;;;;;5070954;28;20441;-83
2023/09/19 05:20:24;;;;;;;13.98;2.20;;;12.90;99.90;;;;;;5072454;28;20037;-84
2023/09/19 05:22:57;;;;;;;9.00;1.70;;;13.10;99.90;;;;;;5072626;28;20116;-81
2023/09/19 05:25:22;;;;;;;11.23;2.05;;;12.90;99.90;;;;;;5072867;28;21087;-82
2023/09/19 05:27:48;;;;;;;13.18;2.50;;;13.00;99.90;;;;;;5072177;28;20079;-84
2023/09/19 05:30:14;;;;;;;10.75;1.88;;;13.00;99.90;;;;;;5072013;28;20072;-86
2023/09/19 05:32:40;;;;;;;10.05;1.67;;;13.00;99.90;;;;;;5072135;28;20923;-81
2023/09/19 05:35:09;;;;;;;8.95;2.05;;;13.00;99.90;;;;;;5072035;28;20044;-81
2023/09/19 05:37:36;;;;;;;7.60;2.08;;;13.00;99.90;;;;;;5070842;28;20139;-81
2023/09/19 05:40:09;;;;;;;11.00;2.05;;;13.00;99.90;;;;;;5070833;28;20052;-84
2023/09/19 05:42:35;;;;;;;11.32;2.08;;;13.10;99.90;;;;;;5070988;28;20107;-83
2023/09/19 05:45:00;;;;;;;14.20;2.10;;;13.00;99.90;;;;;;5071057;28;20084;-83
2023/09/19 05:47:26;;;;;;;13.55;2.72;;;13.00;99.90;;;;;;5053971;28;20047;-84
2023/09/19 05:49:52;;;;;;;15.52;2.10;;;13.10;99.90;;;;;;5070444;28;20045;-83
2023/09/19 05:52:22;;;;;;;7.38;1.60;;;13.20;99.90;;;;;;5070446;28;20068;-79
2023/09/19 05:54:50;;;;;;;10.02;1.85;;;13.10;99.90;;;;;;5054795;28;20095;-82
2023/09/19 05:57:16;;;;;;;14.65;2.53;;;13.10;99.90;;;;;;5053762;28;20088;-80
2023/09/19 05:59:43;;;;;;;13.30;2.38;;;13.10;99.90;;;;;;5071879;28;20109;-81
2023/09/19 06:02:09;;;;;;;14.98;2.30;;;13.10;99.90;;;;;;5070451;28;20055;-83
2023/09/19 06:04:35;;;;;;;11.60;2.22;;;13.10;99.90;;;;;;5071850;28;20052;-77
2023/09/19 06:07:02;;;;;;;17.80;2.55;;;13.10;99.90;;;;;;5071871;28;20049;-81
2023/09/19 06:09:28;;;;;;;13.07;2.08;;;13.10;99.90;;;;;;5071812;28;20391;-81
2023/09/19 06:11:55;;;;;;;7.13;2.03;;;13.20;99.90;;;;;;5071431;28;20052;-80
2023/09/19 06:14:22;;;;;;;12.40;1.98;;;13.20;99.90;;;;;;5070856;28;20040;-82
2023/09/19 06:16:48;;;;;;;13.43;2.88;;;13.20;99.90;;;;;;5069884;28;20108;-81
2023/09/19 06:19:13;;;;;;;11.63;2.42;;;13.20;99.90;;;;;;5071456;28;20092;-79
2023/09/19 06:21:39;;;;;;;14.23;2.22;;;13.30;99.90;;;;;;5070375;28;20060;-82
2023/09/19 06:24:05;;;;;;;15.60;2.83;;;13.30;99.90;;;;;;5071506;28;20462;-84
2023/09/19 06:26:31;;;;;;;9.65;2.47;;;13.40;99.90;;;;;;5053186;28;20510;-81
2023/09/19 06:28:59;;;;;;;14.52;3.00;;;13.70;99.90;;;;;;5071268;28;20115;-83
2023/09/19 06:31:26;;;;;;;9.20;2.20;;;13.40;99.90;;;;;;5070929;28;20063;-82
2023/09/19 06:33:52;;;;;;;12.23;2.28;;;13.40;99.90;;;;;;5071131;28;20044;-79
2023/09/19 06:36:19;;;;;;;10.40;2.45;;;13.40;99.90;;;;;;5071216;28;20067;-82
2023/09/19 06:38:45;;;;;;;14.98;2.60;;;13.50;99.90;;;;;;5070979;28;20090;-81
2023/09/19 06:41:11;;;;;;;11.82;2.10;;;13.60;99.90;;;;;;5069746;28;20045;-83
2023/09/19 06:43:37;;;;;;;9.18;2.28;;;13.60;99.90;;;;;;5071620;28;20524;-81
2023/09/19 06:46:02;;;;;;;12.13;2.10;;;13.60;99.90;;;;;;5070791;28;20041;-83
2023/09/19 06:48:32;;;;;;;10.50;2.10;;;13.60;99.90;;;;;;5053105;28;20033;-83
2023/09/19 06:50:58;;;;;;;14.35;2.42;;;13.60;99.90;;;;;;5070342;28;20094;-87
2023/09/19 06:53:24;;;;;;;7.57;1.80;;;13.70;99.90;;;;;;5069198;28;20055;-82
2023/09/19 06:55:54;;;;;;;14.45;2.20;;;13.80;99.90;;;;;;5069686;28;20413;-87
2023/09/19 06:58:20;;;;;;;11.18;2.38;;;13.90;99.90;;;;;;5052987;28;20059;-82
2023/09/19 07:00:45;;;;;;;13.70;2.25;;;13.90;99.90;;;;;;5069247;28;20041;-84
2023/09/19 07:03:14;;;;;;;11.38;2.05;;;13.90;99.90;;;;;;5052510;28;20048;-82
2023/09/19 07:05:40;;;;;;;8.77;2.00;;;14.00;99.90;;;;;;5070503;28;20086;-86
2023/09/19 07:08:08;;;;;;;15.23;2.60;;;14.10;99.90;;;;;;5068935;28;20134;-83
2023/09/19 07:10:33;;;;;;;11.23;2.40;;;14.10;99.90;;;;;;5070628;28;20178;-80
2023/09/19 07:13:00;;;;;;;16.17;3.05;;;14.30;99.90;;;;;;5070191;28;20535;-82
2023/09/19 07:15:30;;;;;;;10.63;2.70;;;14.20;99.90;;;;;;5070484;28;20048;-79
2023/09/19 07:17:56;;;;;;;14.30;2.67;;;14.20;99.90;;;;;;5069531;28;20482;-81
2023/09/19 07:20:26;;;;;;;16.17;2.58;;;14.30;99.90;;;;;;5068996;28;20137;-83
2023/09/19 07:22:54;;;;;;;18.27;3.00;;;14.40;99.90;;;;;;5070422;28;20048;-79
2023/09/19 07:25:21;;;;;;;11.27;2.20;;;14.40;99.90;;;;;;5069235;28;20102;-83
2023/09/19 07:27:46;;;;;;;12.23;2.05;;;14.50;99.90;;;;;;5070403;28;20037;-83
2023/09/19 07:30:13;;;;;;;10.60;2.45;;;14.50;99.90;;;;;;5070365;28;20048;-82
2023/09/19 07:32:40;;;;;;;13.65;2.42;;;14.50;99.90;;;;;;5069437;28;20076;-84
2023/09/19 07:35:06;;;;;;;8.05;2.03;;;14.50;99.90;;;;;;5069583;28;20589;-82
2023/09/19 07:37:36;;;;;;;7.82;2.10;;;14.50;99.90;;;;;;5069880;28;20060;-81
2023/09/19 07:40:09;;;;;;;14.05;2.60;;;14.60;99.90;;;;;;5068696;28;20080;-79
2023/09/19 07:42:36;;;;;;;12.63;2.30;;;14.70;99.90;;;;;;5069900;28;20048;-82
2023/09/19 07:45:03;;;;;;;10.57;3.25;;;14.70;99.90;;;;;;5069766;28;20399;-79
2023/09/19 07:47:30;;;;;;;13.80;2.55;;;14.80;99.90;;;;;;5069362;28;20048;-81
2023/09/19 07:49:55;;;;;;;11.13;2.25;;;14.80;99.90;;;;;;5067943;28;20162;-83
2023/09/19 07:52:22;;;;;;;12.82;2.22;;;14.80;99.90;;;;;;5068831;28;20131;-79
2023/09/19 07:54:49;;;;;;;13.60;3.15;;;14.90;99.90;;;;;;5068337;28;20059;-80
2023/09/19 07:57:15;;;;;;;8.32;2.05;;;15.00;99.90;;;;;;5051815;28;20045;-83
2023/09/19 07:59:41;;;;;;;11.45;2.90;;;15.10;99.90;;;;;;5068305;28;20040;-82
2023/09/19 08:02:09;;;;;;;21.17;2.00;;;15.10;99.90;;;;;;5069764;28;20043;-80
2023/09/19 08:04:35;;;;;;;10.70;2.05;;;15.00;99.90;;;;;;5067998;28;20694;-78
2023/09/19 08:07:03;;;;;;;12.55;2.03;;;15.00;99.90;;;;;;5069780;28;20713;-81
2023/09/19 08:09:33;;;;;;;15.07;3.05;;;15.00;99.90;;;;;;5067748;28;20608;-81
2023/09/19 08:11:59;;;;;;;11.57;2.40;;;15.10;99.90;;;;;;5069542;28;20048;-81
2023/09/19 08:14:25;;;;;;;12.77;2.60;;;15.10;99.90;;;;;;5051548;28;20044;-80
2023/09/19 08:16:51;;;;;;;16.27;3.17;;;15.10;99.90;;;;;;5067954;28;20080;-84
2023/09/19 08:19:17;;;;;;;12.65;2.25;;;15.00;99.90;;;;;;5051185;28;20075;-81
2023/09/19 08:21:47;;;;;;;8.48;2.00;;;15.00;99.90;;;;;;5067910;28;20053;-78
2023/09/19 08:24:14;;;;;;;12.80;2.25;;;15.00;99.90;;;;;;5069081;28;20040;-76
2023/09/19 08:26:40;;;;;;;11.90;2.97;;;15.10;99.90;;;;;;5067184;28;20095;-79
2023/09/19 08:29:07;;;;;;;13.63;2.50;;;15.10;99.90;;;;;;5069378;28;20068;-80
2023/09/19 08:31:33;;;;;;;10.63;2.70;;;15.10;99.90;;;;;;5061197;28;20554;-80
2023/09/19 08:34:00;;;;;;;12.43;2.15;;;15.20;99.90;;;;;;5067791;28;20053;-80
2023/09/19 08:36:25;;;;;;;12.68;2.10;;;15.40;99.90;;;;;;5068473;28;20147;-79
2023/09/19 08:38:51;;;;;;;13.60;2.72;;;15.50;99.90;;;;;;5068011;28;20119;-79
2023/09/19 08:41:17;;;;;;;14.15;3.05;;;15.60;99.90;;;;;;5069212;28;20048;-81
2023/09/19 08:43:43;;;;;;;15.48;3.42;;;15.60;99.90;;;;;;5060814;28;20135;-79
2023/09/19 08:46:14;;;;;;;11.48;2.03;;;15.70;99.90;;;;;;5067759;28;20131;-80
2023/09/19 08:49:00;;;;;;;13.38;2.30;;;15.80;99.90;;;;;;5069379;28;20036;-78
2023/09/19 08:51:46;;;;;;;10.13;2.17;;;15.80;99.90;;;;;;5068906;28;20102;-80
2023/09/19 08:54:38;;;;;;;14.77;2.70;;;15.90;99.90;;;;;;5044847;28;20052;-79
2023/09/19 08:57:10;;;;;;;14.25;3.35;;;16.00;99.90;;;;;;5068000;28;20060;-84
2023/09/19 08:59:40;;;;;;;15.23;2.78;;;16.00;99.90;;;;;;5069783;28;20094;-79
2023/09/19 09:02:11;;;;;;;16.17;2.65;;;16.10;99.90;;;;;;5060041;28;20098;-81
2023/09/19 09:04:40;;;;;;;11.93;2.42;;;16.10;99.90;;;;;;5068117;28;20058;-80
2023/09/19 09:07:12;;;;;;;15.10;2.40;;;16.20;99.90;;;;;;5067489;28;20080;-80
2023/09/19 09:09:42;;;;;;;17.02;2.95;;;16.20;99.90;;;;;;5068012;28;20120;-80
2023/09/19 09:12:12;;;;;;;11.35;3.13;;;16.30;99.90;;;;;;5067509;28;20138;-81
2023/09/19 09:14:38;;;;;;;13.50;2.67;;;16.20;99.90;;;;;;5069187;28;20050;-79
2023/09/19 09:17:04;;;;;;;14.70;3.65;;;16.30;99.90;;;;;;5072407;28;20044;-85
2023/09/19 09:19:31;;;;;;;12.90;2.92;;;16.40;99.90;;;;;;5071480;28;20040;-81
2023/09/19 09:22:09;;;;;;;14.23;3.10;;;16.40;99.90;;;;;;5054860;28;20072;-81
2023/09/19 09:24:37;;;;;;;14.60;3.42;;;16.50;99.90;;;;;;5065839;28;20041;-82
2023/09/19 09:27:10;;;;;;;16.92;3.33;;;16.50;99.90;;;;;;5072592;28;20045;-80
2023/09/19 09:29:51;;;;;;;19.60;3.33;;;16.50;99.90;;;;;;5063452;28;20083;-79
2023/09/19 09:32:26;;;;;;;17.70;3.17;;;16.70;99.90;;;;;;5072468;28;20063;-81
2023/09/19 09:34:51;;;;;;;12.32;2.92;;;16.80;99.90;;;;;;5070940;28;20242;-78
2023/09/19 09:37:21;;;;;;;19.17;3.00;;;16.80;99.90;;;;;;5072055;28;20154;-77
2023/09/19 09:39:58;;;;;;;15.93;2.75;;;16.90;99.90;;;;;;5071099;28;20498;-79
2023/09/19 09:42:38;;;;;;;14.98;3.08;;;17.00;99.90;;;;;;5072202;28;20041;-82
2023/09/19 09:47:59;;;;;;;14.63;2.95;;;17.30;99.90;;;;;;5063376;28;20052;-79
2023/09/19 09:50:44;;;;;;;15.10;2.97;;;17.30;99.90;;;;;;5070547;28;20113;-83
2023/09/19 09:53:32;;;;;;;14.35;2.80;;;17.30;99.90;;;;;;5064575;28;20052;-79
2023/09/19 09:56:05;;;;;;;14.52;2.67;;;17.30;99.90;;;;;;5063854;28;20040;-77
2023/09/19 09:58:34;;;;;;;16.63;2.55;;;17.40;99.90;;;;;;5072192;28;20385;-81
2023/09/19 10:01:03;;;;;;;15.68;3.33;;;17.40;99.90;;;;;;5070642;28;20448;-85
2023/09/19 10:03:43;;;;;;;14.60;3.17;;;17.50;99.90;;;;;;5071953;28;20392;-81
2023/09/19 10:06:25;;;;;;;17.38;3.03;;;17.60;99.90;;;;;;5063816;28;20066;-81
2023/09/19 10:09:20;;;;;;;17.70;2.67;;;17.50;99.90;;;;;;5071669;28;20041;-78
2023/09/19 10:12:01;;;;;;;;;;;17.70;99.90;;;;;;5072173;28;20115;-79
2023/09/19 10:14:31;;;;;;;19.05;2.88;;;17.70;99.90;;;;;;5064863;28;19931;-83
2023/09/19 10:17:03;;;;;;;17.42;3.00;;;17.80;99.90;;;;;;5071566;28;20041;-77
2023/09/19 10:19:48;;;;;;;14.48;3.00;;;17.80;99.90;;;;;;5071755;28;20043;-81
2023/09/19 10:22:20;;;;;;;;;;;17.80;99.90;;;;;;5069525;28;20096;-78
2023/09/19 10:24:49;;;;;;;14.50;2.47;;;17.80;99.90;;;;;;5071581;28;19924;-79
2023/09/19 10:27:19;;;;;;;13.98;2.53;;;17.70;99.90;;;;;;5070939;28;20080;-82
2023/09/19 10:29:49;;;;;;;16.80;3.00;;;17.90;99.90;;;;;;5071392;28;20036;-80
2023/09/19 10:32:19;;;;;;;15.23;3.42;;;18.10;99.90;;;;;;5070699;28;20498;-77
2023/09/19 10:34:47;;;;;;;14.15;2.50;;;18.10;99.90;;;;;;5069856;28;20106;-77
2023/09/19 10:37:15;;;;;;;12.07;2.38;;;18.20;99.90;;;;;;5070666;28;20462;-82
2023/09/19 10:39:45;;;;;;;24.13;3.88;;;18.30;99.90;;;;;;5071172;28;20045;-81
2023/09/19 10:42:19;;;;;;;15.63;3.03;;;18.20;99.90;;;;;;5069858;28;20094;-78
2023/09/19 10:44:53;;;;;;;11.48;2.55;;;18.20;99.90;;;;;;5071088;28;20081;-80
2023/09/19 10:47:20;;;;;;;17.20;3.22;;;18.00;99.90;;;;;;5070238;28;20372;-80
2023/09/19 10:49:46;;;;;;;11.80;2.75;;;18.00;99.90;;;;;;5070643;28;20044;-77
2023/09/19 10:52:19;;;;;;;13.48;2.65;;;18.00;99.90;;;;;;5070349;28;20037;-80
2023/09/19 10:54:51;;;;;;;14.80;3.05;;;18.10;99.90;;;;;;5070890;28;20411;-81
2023/09/19 10:57:24;;;;;;;14.40;3.00;;;18.10;99.90;;;;;;5069606;28;20466;-79
2023/09/19 11:00:23;;;;;;;15.38;3.55;;;18.00;99.90;;;;;;5064384;28;20044;-77
2023/09/19 11:03:14;;;;;;;14.18;3.15;;;17.90;99.90;;;;;;5038339;28;20050;-82
2023/09/19 11:05:41;;;;;;;14.90;2.88;;;18.00;99.90;;;;;;5068886;28;20056;-77
2023/09/19 11:08:08;;;;;;;13.23;3.08;;;17.90;99.90;;;;;;5069319;28;20491;-76
2023/09/19 11:10:50;;;;;;;12.85;2.60;;;18.00;99.90;;;;;;5070873;28;20049;-83
2023/09/19 11:13:26;;;;;;;13.98;2.70;;;17.90;99.90;;;;;;5062730;28;20166;-81
2023/09/19 11:16:19;;;;;;;12.68;2.50;;;18.00;99.90;;;;;;5069648;28;20365;-80
2023/09/19 11:18:45;;;;;;;11.95;2.53;;;17.90;99.90;;;;;;5064491;28;20067;-81
2023/09/19 11:21:33;;;;;;;14.07;2.90;;;17.80;99.90;;;;;;5070108;28;20388;-82
2023/09/19 11:24:22;;;;;;;14.05;2.92;;;17.80;99.90;;;;;;5070441;28;20399;-77
2023/09/19 11:26:48;;;;;;;14.50;2.78;;;17.80;99.90;;;;;;5063310;28;20546;-78
2023/09/19 11:29:31;;;;;;;17.88;3.25;;;17.80;99.90;;;;;;5068800;28;20151;-81
2023/09/19 11:31:59;;;;;;;14.05;3.42;;;18.00;99.90;;;;;;5069838;28;20048;-78
2023/09/19 11:34:37;;;;;;;13.88;2.20;;;18.00;99.90;;;;;;5070259;28;20053;-80
2023/09/19 11:37:11;;;;;;;16.52;2.75;;;18.00;99.90;;;;;;5052112;28;20063;-78
2023/09/19 11:39:38;;;;;;;12.23;2.42;;;18.00;99.90;;;;;;5068112;28;20048;-80
2023/09/19 11:42:43;;;;;;;12.10;2.90;;;18.10;99.90;;;;;;5070051;28;20040;-81
2023/09/19 11:45:49;;;;;;;18.38;2.85;;;18.20;99.90;;;;;;5063443;28;20055;-81
2023/09/19 11:48:25;;;;;;;19.02;3.45;;;18.40;99.90;;;;;;5082096;28;20134;-77
2023/09/19 11:50:52;;;;;;;18.30;3.00;;;18.30;99.90;;;;;;5061272;28;20643;-80
2023/09/19 11:53:19;;;;;;;15.05;2.53;;;18.20;99.90;;;;;;5071630;28;20111;-79
2023/09/19 11:55:45;;;;;;;14.45;2.63;;;18.10;99.90;;;;;;5076358;28;20052;-77
2023/09/19 11:58:14;;;;;;;18.98;2.88;;;18.00;99.90;;;;;;5070042;28;20043;-80
2023/09/19 12:00:43;;;;;;;13.50;3.22;;;17.90;99.90;;;;;;5073377;28;20834;-80
2023/09/19 12:03:11;;;;;;;11.38;2.50;;;17.80;99.90;;;;;;5069979;28;20115;-77
2023/09/19 12:05:37;;;;;;;18.13;3.80;;;17.80;99.90;;;;;;5067700;28;20514;-78
2023/09/19 12:08:10;;;;;;;12.90;2.53;;;17.90;99.90;;;;;;5063805;28;20056;-77
2023/09/19 12:10:47;;;;;;;13.05;2.10;;;17.80;99.90;;;;;;5058593;28;20052;-77
2023/09/19 12:13:17;;;;;;;12.07;2.28;;;17.80;99.90;;;;;;5060571;28;20109;-76
2023/09/19 12:15:45;;;;;;;16.15;2.47;;;17.70;99.90;;;;;;5039429;28;20507;-79
2023/09/19 12:18:26;;;;;;;14.20;3.05;;;17.70;99.90;;;;;;5066847;28;20507;-76
2023/09/19 12:20:52;;;;;;;11.00;2.40;;;17.70;99.90;;;;;;5067213;28;20040;-77
2023/09/19 12:23:19;;;;;;;14.48;2.97;;;17.70;99.90;;;;;;5067297;28;20102;-78
2023/09/19 12:25:52;;;;;;;16.67;2.53;;;17.70;99.90;;;;;;5065744;28;20053;-77
2023/09/19 12:28:18;;;;;;;18.52;2.83;;;17.60;99.90;;;;;;5058154;28;20139;-79
2023/09/19 12:30:45;;;;;;;16.10;2.35;;;17.60;99.90;;;;;;5067179;28;20131;-76
2023/09/19 12:33:24;;;;;;;14.95;2.40;;;17.60;99.90;;;;;;5069314;28;20139;-77
2023/09/19 12:35:52;;;;;;;11.85;2.15;;;17.60;99.90;;;;;;5050657;28;20060;-74
2023/09/19 12:38:28;;;;;;;14.50;1.98;;;17.60;99.90;;;;;;5063979;28;20052;-80
2023/09/19 12:41:00;;;;;;;12.32;2.20;;;17.60;99.90;;;;;;5067466;28;20504;-78
2023/09/19 12:43:27;;;;;;;12.45;2.25;;;17.60;99.90;;;;;;5064172;28;20060;-81
2023/09/19 12:45:53;;;;;;;11.75;2.70;;;17.70;99.90;;;;;;5069620;28;20051;-77
2023/09/19 12:48:38;;;;;;;7.53;1.63;;;17.70;99.90;;;;;;5061749;28;20059;-79
2023/09/19 12:51:15;;;;;;;12.55;1.58;;;17.80;99.90;;;;;;5065684;28;20098;-78
2023/09/19 12:53:48;;;;;;;11.20;2.00;;;17.80;99.90;;;;;;5069811;28;20050;-81